createdAt,value
2023-09-04T00:00:38.471Z,75.70
2023-09-04T00:03:07.926Z,75.30
2023-09-04T00:05:37.738Z,75.20
2023-09-04T00:08:07.625Z,74.70
2023-09-04T00:10:37.493Z,74.50
2023-09-04T00:13:08.071Z,74.20
2023-09-04T00:15:37.522Z,73.60
2023-09-04T00:18:07.354Z,73.50
2023-09-04T00:20:36.814Z,72.50
2023-09-04T00:23:06.383Z,72.40
2023-09-04T00:25:35.899Z,72.30
2023-09-04T00:28:06.377Z,71.30
2023-09-04T00:30:35.864Z,70.80
2023-09-04T00:33:05.552Z,70.80
2023-09-04T00:35:35.090Z,70.50
2023-09-04T00:38:04.647Z,70.20
2023-09-04T00:40:34.102Z,69.70
2023-09-04T00:43:03.590Z,69.10
2023-09-04T00:45:33.268Z,68.60
2023-09-04T00:48:02.822Z,68.30
2023-09-04T00:50:33.244Z,68.60
2023-09-04T00:53:04.678Z,68.00
2023-09-04T00:55:34.878Z,68.00
2023-09-04T00:58:06.485Z,67.60
2023-09-04T01:00:36.058Z,66.90
2023-09-04T01:03:05.988Z,66.50
2023-09-04T06:21:41.298Z,46.40
2023-09-04T06:24:10.769Z,47.10
2023-09-04T06:26:40.223Z,47.10
2023-09-04T06:29:09.794Z,47.00
2023-09-04T06:31:39.315Z,47.10
2023-09-04T06:34:08.776Z,47.20
2023-09-04T06:36:38.674Z,47.40
2023-09-04T06:39:09.014Z,47.30
2023-09-04T06:41:38.491Z,47.50
2023-09-04T06:44:08.272Z,48.00
2023-09-04T06:46:37.797Z,47.80
2023-09-04T06:49:07.681Z,48.10
2023-09-04T06:51:37.273Z,48.30
2023-09-04T06:54:07.438Z,48.80
2023-09-04T06:56:36.970Z,48.40
2023-09-04T06:59:07.476Z,49.00
2023-09-04T07:01:37.102Z,49.20
2023-09-04T07:04:07.104Z,49.40
2023-09-04T07:06:36.550Z,50.00
2023-09-04T07:09:06.160Z,50.00
2023-09-04T07:11:35.650Z,50.30
2023-09-04T07:14:05.629Z,50.50
2023-09-04T07:16:44.525Z,51.00
2023-09-04T07:19:16.601Z,51.50
2023-09-04T07:21:46.800Z,52.00
2023-09-04T07:24:16.764Z,52.40
2023-09-04T07:26:49.220Z,53.00
2023-09-04T07:29:23.140Z,53.50
2023-09-04T07:31:52.739Z,53.80
2023-09-04T07:34:22.233Z,54.10
2023-09-04T07:36:51.747Z,54.60
2023-09-04T07:39:21.314Z,54.90
2023-09-04T07:41:51.201Z,55.20
2023-09-04T07:44:20.793Z,55.60
2023-09-04T07:46:52.818Z,55.80
2023-09-04T07:49:24.593Z,56.30
2023-09-04T07:51:55.994Z,56.80
2023-09-04T07:54:26.069Z,57.10
2023-09-04T07:56:56.672Z,57.90
2023-09-04T07:59:26.123Z,58.10
2023-09-04T08:01:56.041Z,58.60
2023-09-04T08:04:26.150Z,58.80
2023-09-04T08:06:56.026Z,59.30
2023-09-04T08:09:26.224Z,59.70
2023-09-04T08:11:55.706Z,59.90
2023-09-04T08:14:25.199Z,60.20
2023-09-04T08:16:54.687Z,60.50
2023-09-04T08:19:24.152Z,60.80
2023-09-04T08:21:54.071Z,60.80
2023-09-04T08:24:26.330Z,61.30
2023-09-04T08:26:56.104Z,61.70
2023-09-04T08:29:26.111Z,61.90
2023-09-04T08:31:56.000Z,62.20
2023-09-04T08:34:25.486Z,62.50
2023-09-04T08:36:55.077Z,62.80
2023-09-04T08:39:24.576Z,62.80
2023-09-04T08:41:54.566Z,63.00
2023-09-04T08:44:24.650Z,63.40
2023-09-04T08:46:54.890Z,63.30
2023-09-04T08:49:25.953Z,63.50
2023-09-04T08:51:56.222Z,63.40
2023-09-04T08:54:28.645Z,63.30
2023-09-04T08:56:58.544Z,63.60
2023-09-04T08:59:28.121Z,63.60
2023-09-04T09:01:59.583Z,63.70
2023-09-04T09:04:29.582Z,63.60
2023-09-04T09:06:59.463Z,63.60
2023-09-04T09:09:29.823Z,63.60
2023-09-04T09:11:59.328Z,63.80
2023-09-04T09:14:32.503Z,64.00
2023-09-04T09:17:08.594Z,64.20
2023-09-04T09:19:39.526Z,64.40
2023-09-04T09:22:13.315Z,64.20
2023-09-04T09:25:09.068Z,64.20
2023-09-04T09:27:38.748Z,64.70
2023-09-04T09:30:08.546Z,65.00
2023-09-04T09:32:38.944Z,64.80
2023-09-04T09:35:08.566Z,64.40
2023-09-04T09:37:38.491Z,65.00
2023-09-04T09:40:12.451Z,64.90
2023-09-04T09:42:44.431Z,65.80
2023-09-04T09:45:15.212Z,65.60
2023-09-04T09:47:45.491Z,65.90
2023-09-04T09:50:17.794Z,66.30
2023-09-04T09:53:01.467Z,66.40
2023-09-04T09:55:33.586Z,66.70
2023-09-04T09:58:04.506Z,67.20
2023-09-04T10:00:36.762Z,67.40
2023-09-04T10:03:06.571Z,68.10
2023-09-04T10:05:37.297Z,67.80
2023-09-04T10:08:08.821Z,68.20
2023-09-04T10:10:40.296Z,67.60
2023-09-04T10:13:20.155Z,67.40
2023-09-04T10:15:53.956Z,67.40
2023-09-04T10:18:31.775Z,67.60
2023-09-04T10:21:02.813Z,67.90
2023-09-04T10:23:44.508Z,68.20
2023-09-04T10:26:39.246Z,68.00
2023-09-04T10:29:14.023Z,67.80
2023-09-04T10:31:43.792Z,68.50
2023-09-04T10:34:14.762Z,68.40
2023-09-04T10:36:44.979Z,68.40
2023-09-04T10:39:14.628Z,68.40
2023-09-04T10:41:44.514Z,68.50
2023-09-04T10:44:15.770Z,68.80
2023-09-04T10:46:58.708Z,68.90
2023-09-04T10:49:35.143Z,68.80
2023-09-04T10:52:05.333Z,69.30
2023-09-04T10:54:34.826Z,69.60
2023-09-04T10:57:08.653Z,69.40
2023-09-04T11:00:04.791Z,69.20
2023-09-04T11:02:36.095Z,69.80
2023-09-04T11:05:06.346Z,69.70
2023-09-04T11:07:39.734Z,69.80
2023-09-04T11:10:20.968Z,69.60
2023-09-04T11:12:50.513Z,69.80
2023-09-04T11:15:20.589Z,70.20
2023-09-04T11:17:53.267Z,70.70
2023-09-04T11:20:28.742Z,70.50
2023-09-04T11:22:59.488Z,70.70
2023-09-04T11:25:29.024Z,70.50
2023-09-04T11:27:58.891Z,70.60
2023-09-04T11:30:30.687Z,71.00
2023-09-04T11:33:02.517Z,71.10
2023-09-04T11:35:33.659Z,71.10
2023-09-04T11:38:04.175Z,71.00
2023-09-04T11:40:37.865Z,70.80
2023-09-04T11:43:09.104Z,70.60
2023-09-04T11:45:38.786Z,70.30
2023-09-04T11:48:08.907Z,70.30
2023-09-04T11:50:40.151Z,70.50
2023-09-04T11:53:10.269Z,70.80
2023-09-04T11:55:40.859Z,70.50
2023-09-04T11:58:10.308Z,71.00
2023-09-04T12:00:39.949Z,71.20
2023-09-04T12:03:09.945Z,71.20
2023-09-04T12:05:39.644Z,71.20
2023-09-04T12:08:09.191Z,71.20
2023-09-04T12:10:40.396Z,71.30
2023-09-04T12:13:09.946Z,71.20
2023-09-04T12:15:41.052Z,71.00
2023-09-04T12:18:11.393Z,72.30
2023-09-04T12:20:43.031Z,73.30
2023-09-04T12:23:13.171Z,74.00
2023-09-04T12:25:43.998Z,74.40
2023-09-04T12:28:19.972Z,74.90
2023-09-04T12:30:50.694Z,75.30
2023-09-04T12:33:20.247Z,74.80
2023-09-04T12:36:00.163Z,75.00
2023-09-04T12:38:29.714Z,75.80
2023-09-04T12:41:00.963Z,76.40
2023-09-04T12:43:31.530Z,76.00
2023-09-04T12:46:02.299Z,76.00
2023-09-04T12:48:32.212Z,76.30
2023-09-04T12:51:03.210Z,75.90
2023-09-04T12:53:33.093Z,76.50
2023-09-04T12:56:02.610Z,77.30
2023-09-04T12:58:32.480Z,77.50
2023-09-04T13:01:02.402Z,77.70
2023-09-04T13:03:32.367Z,77.60
2023-09-04T13:06:02.260Z,78.10
2023-09-04T13:08:32.967Z,78.20
2023-09-04T13:11:02.972Z,78.00
2023-09-04T13:13:32.907Z,78.00
2023-09-04T13:16:02.805Z,76.50
2023-09-04T13:18:32.702Z,76.10
2023-09-04T13:21:03.300Z,71.80
2023-09-04T13:23:33.292Z,72.30
2023-09-04T13:26:03.145Z,71.60
2023-09-04T13:28:33.078Z,71.20
2023-09-04T13:31:03.963Z,68.40
2023-09-04T13:33:33.610Z,67.50
2023-09-04T13:36:03.073Z,68.60
2023-09-04T13:38:32.715Z,69.10
2023-09-04T13:41:02.599Z,69.20
2023-09-04T13:43:32.064Z,69.20
2023-09-04T13:46:01.595Z,68.70
2023-09-04T13:48:34.242Z,69.50
2023-09-04T13:51:05.096Z,70.40
2023-09-04T13:53:35.595Z,71.40
2023-09-04T13:56:07.248Z,70.90
2023-09-04T13:58:36.748Z,70.50
2023-09-04T14:01:06.484Z,70.70
2023-09-04T14:03:36.116Z,70.60
2023-09-04T14:06:06.134Z,70.90
2023-09-04T14:08:36.122Z,71.60
2023-09-04T14:11:05.857Z,71.50
2023-09-04T14:13:35.380Z,71.20
2023-09-04T14:16:06.453Z,71.40
2023-09-04T14:18:35.915Z,71.40
2023-09-04T14:21:05.862Z,71.60
2023-09-04T14:23:35.527Z,71.70
2023-09-04T14:26:08.058Z,71.20
2023-09-04T14:28:38.417Z,70.80
2023-09-04T14:31:15.307Z,70.50
2023-09-04T14:33:44.816Z,70.20
2023-09-04T14:36:14.274Z,70.00
2023-09-04T14:38:43.746Z,69.90
2023-09-04T14:41:16.700Z,69.40
2023-09-04T14:43:46.510Z,69.20
2023-09-04T14:46:16.059Z,69.50
2023-09-04T14:48:45.622Z,72.10
2023-09-04T14:51:15.086Z,75.60
2023-09-04T14:53:45.208Z,75.40
2023-09-04T14:56:14.792Z,75.50
2023-09-04T14:58:44.722Z,75.60
2023-09-04T15:01:17.848Z,75.50
2023-09-04T15:03:48.119Z,76.10
2023-09-04T15:06:18.109Z,76.00
2023-09-04T15:08:47.761Z,76.00
2023-09-04T15:11:19.769Z,76.00
2023-09-04T15:13:49.775Z,76.10
2023-09-04T15:16:19.402Z,75.80
2023-09-04T15:18:48.993Z,75.90
2023-09-04T15:21:19.280Z,76.60
2023-09-04T15:23:48.732Z,76.50
2023-09-04T15:26:18.641Z,76.60
2023-09-04T15:28:48.167Z,76.30
2023-09-04T15:31:17.719Z,75.70
2023-09-04T15:33:48.477Z,75.40
2023-09-04T15:36:19.101Z,75.20
2023-09-04T15:38:48.655Z,75.00
2023-09-04T15:41:18.519Z,74.90
2023-09-04T15:43:48.166Z,75.20
2023-09-04T15:46:18.147Z,75.60
2023-09-04T15:48:48.885Z,77.70
2023-09-04T15:51:18.602Z,78.40
2023-09-04T15:53:48.520Z,78.80
2023-09-04T15:56:18.714Z,79.40
2023-09-04T15:58:48.175Z,80.20
2023-09-04T16:01:17.675Z,81.30
2023-09-04T16:03:47.615Z,81.40
2023-09-04T16:06:17.118Z,81.30
2023-09-04T16:08:46.597Z,81.80
2023-09-04T18:00:24.434Z,83.00
2023-09-04T18:02:54.470Z,83.60
2023-09-04T18:05:24.160Z,84.00
2023-09-04T18:07:54.881Z,84.20
2023-09-04T18:10:24.483Z,84.20
2023-09-04T18:12:53.934Z,84.30
2023-09-04T18:15:26.738Z,84.40
2023-09-04T18:17:56.244Z,84.30
2023-09-04T18:20:25.777Z,84.00
2023-09-04T18:22:55.376Z,83.80
2023-09-04T18:25:24.940Z,83.60
2023-09-04T18:27:54.385Z,83.70
2023-09-04T18:30:23.963Z,83.70
2023-09-04T18:32:53.921Z,83.50
2023-09-04T18:35:28.253Z,83.30
2023-09-04T18:37:59.339Z,83.30
2023-09-04T18:40:28.920Z,83.10
2023-09-04T18:42:58.385Z,83.10
2023-09-04T18:45:28.294Z,82.90
2023-09-04T18:47:58.261Z,82.70
2023-09-04T18:50:27.803Z,82.70
2023-09-04T18:52:57.320Z,82.40
2023-09-04T18:55:27.331Z,82.10
2023-09-04T18:57:57.275Z,81.70
2023-09-04T19:00:27.134Z,80.90
2023-09-04T19:02:57.122Z,80.90
2023-09-04T19:05:27.058Z,80.70
2023-09-04T19:07:56.608Z,80.30
2023-09-04T19:10:26.065Z,79.80
2023-09-04T19:12:56.050Z,78.40
2023-09-04T19:15:26.084Z,78.40
2023-09-04T19:17:55.686Z,77.00
2023-09-04T19:20:25.631Z,77.20
2023-09-04T19:22:55.074Z,77.30
2023-09-04T19:25:24.555Z,77.20
2023-09-04T19:27:55.769Z,78.20
2023-09-04T19:30:28.300Z,80.20
2023-09-04T19:32:59.459Z,80.80
2023-09-04T19:35:29.020Z,80.90
2023-09-04T19:37:59.625Z,81.00
2023-09-04T19:40:29.148Z,80.80
2023-09-04T19:43:00.623Z,80.10
2023-09-04T19:45:30.473Z,78.40
2023-09-04T19:48:00.031Z,77.60
2023-09-04T19:50:29.616Z,77.40
2023-09-04T19:52:59.209Z,78.00
2023-09-04T19:55:29.207Z,77.00
2023-09-04T19:58:01.171Z,77.20
2023-09-04T20:00:30.880Z,77.10
2023-09-04T20:03:00.459Z,77.00
2023-09-04T20:05:30.265Z,77.20
2023-09-04T20:07:59.742Z,77.40
2023-09-04T20:10:29.221Z,76.90
2023-09-04T20:12:58.739Z,76.50
2023-09-04T20:15:28.275Z,75.80
2023-09-04T20:17:58.836Z,73.90
2023-09-04T20:20:28.402Z,71.80
2023-09-04T20:22:57.879Z,72.20
2023-09-04T20:25:27.804Z,72.90
2023-09-04T20:27:57.290Z,72.20
2023-09-04T20:30:27.740Z,71.20
2023-09-04T20:32:57.888Z,71.10
2023-09-04T20:35:27.371Z,70.60
2023-09-04T20:37:58.154Z,71.00
2023-09-04T20:40:27.969Z,70.40
2023-09-04T20:42:57.627Z,70.00
2023-09-04T20:45:27.161Z,68.60
2023-09-04T20:47:56.655Z,66.60
2023-09-04T20:50:26.694Z,66.60
2023-09-04T20:52:56.152Z,65.10
2023-09-04T20:55:26.081Z,63.60
2023-09-04T20:57:56.661Z,64.40
2023-09-04T21:00:26.585Z,62.70
2023-09-04T21:02:56.626Z,64.80
2023-09-04T21:05:26.529Z,63.40
2023-09-04T21:07:55.669Z,62.30
2023-09-04T21:10:25.270Z,62.70
2023-09-04T21:13:12.949Z,62.00
2023-09-04T21:16:00.491Z,61.60
2023-09-04T21:18:48.061Z,62.70
2023-09-04T21:21:35.842Z,60.10
2023-09-04T21:24:23.557Z,58.30
2023-09-04T21:27:11.148Z,56.60
2023-09-04T21:29:58.361Z,56.30
2023-09-04T21:32:46.034Z,53.70
2023-09-04T21:35:33.381Z,54.60
2023-09-04T21:38:21.377Z,54.70
2023-09-04T21:41:10.648Z,53.70
2023-09-04T21:43:58.796Z,51.40
2023-09-04T21:46:46.142Z,50.40
2023-09-04T21:49:33.697Z,51.60
2023-09-04T21:52:21.073Z,50.20
2023-09-04T21:55:09.261Z,50.60
2023-09-04T21:57:57.083Z,49.50
2023-09-04T22:00:44.731Z,49.30
2023-09-04T22:03:32.584Z,49.50
2023-09-04T22:06:24.027Z,46.60
2023-09-04T22:09:11.855Z,47.60
2023-09-04T22:11:59.167Z,47.30
2023-09-04T22:14:46.443Z,44.90
2023-09-04T22:17:34.070Z,45.30
2023-09-04T22:20:21.683Z,45.80
2023-09-04T22:23:09.404Z,46.00
2023-09-04T22:25:58.626Z,44.50
2023-09-04T22:28:46.380Z,43.60
2023-09-04T22:31:33.697Z,43.90
2023-09-04T22:34:21.338Z,42.70
2023-09-04T22:37:08.617Z,43.80
2023-09-04T22:39:58.206Z,41.00
2023-09-04T22:42:45.552Z,39.90
2023-09-04T22:45:33.088Z,39.60
2023-09-04T22:48:22.442Z,39.80
2023-09-04T22:51:09.949Z,39.10
2023-09-04T22:53:57.938Z,38.70
2023-09-04T22:56:45.541Z,37.80
2023-09-04T22:59:33.070Z,37.40
2023-09-04T23:02:20.701Z,36.90
2023-09-04T23:05:08.261Z,36.20
2023-09-04T23:07:55.679Z,36.90
2023-09-04T23:10:43.204Z,36.20
2023-09-04T23:13:31.504Z,36.30
2023-09-04T23:16:20.351Z,36.00
2023-09-04T23:19:07.582Z,34.80
2023-09-04T23:21:37.175Z,33.50
2023-09-04T23:24:09.795Z,32.40
2023-09-04T23:26:43.479Z,30.90
2023-09-04T23:29:18.803Z,30.50
2023-09-04T23:31:50.687Z,32.00
2023-09-04T23:34:35.409Z,30.80
2023-09-04T23:37:10.788Z,31.30
